GZP weather

Gazipaşa Airport
Gazipaşa, Antalya Province, Turkey

Public forecast

Using degrees Celsius for public forecast. Weather courtesy of forecast.io.

Closest aviation weather report (METAR) to Gazipaşa Airport

Closest report is Antalya International Airport, 80.8 nm (149.6 km) WNW. Retrieved 2019/12/13 10:20 UTC (0 seconds ago):

LTAI 131020Z 08004KT 060V120 9999 -SHRA FEW020CB BKN030 13/11 Q1009 NOSIG RMK RWY18C 10006KT RWY36R 04003KT 360V060 RWY18L 04003KT 340V090

Closest aviation forecast (TAF) to Gazipaşa Airport

Closest forecast is Antalya International Airport, 80.8 nm (149.6 km) WNW. Retrieved 2019/12/13 06:03 UTC (4 hours ago):

TAF LTAI 130440Z 1306/1406 VRB02KT 9999 -SHRA BKN030 BECMG 1306/1310 FEW020CB BKN030 PROB40 TEMPO 1312/1316 4000 TSRA SCT010CB BKN025 BECMG 1322/1402 SCT030